createdAt,value
2018-05-28T00:00:15.941Z,0
2018-05-28T00:10:15.869Z,0
2018-05-28T00:20:15.808Z,0
2018-05-28T00:30:15.760Z,0
2018-05-28T00:40:15.849Z,0
2018-05-28T00:50:15.858Z,0
2018-05-28T01:00:15.808Z,0
2018-05-28T01:10:15.837Z,0
2018-05-28T01:20:15.802Z,0
2018-05-28T01:30:15.888Z,0
2018-05-28T01:40:15.806Z,0
2018-05-28T01:50:15.798Z,0
2018-05-28T02:00:16.742Z,0
2018-05-28T02:10:15.832Z,0
2018-05-28T02:20:16.701Z,0
2018-05-28T02:30:15.864Z,0
2018-05-28T02:40:15.771Z,0
2018-05-28T02:50:15.861Z,0
2018-05-28T03:00:15.811Z,0
2018-05-28T03:10:15.902Z,0
2018-05-28T03:20:15.859Z,5
2018-05-28T03:30:15.815Z,10
2018-05-28T03:40:15.880Z,20
2018-05-28T03:50:15.878Z,35
2018-05-28T04:00:15.793Z,45
2018-05-28T04:10:15.835Z,55
2018-05-28T04:20:15.784Z,65
2018-05-28T04:30:15.906Z,75
2018-05-28T04:40:15.799Z,90
2018-05-28T04:50:15.848Z,105
2018-05-28T05:00:15.857Z,115
2018-05-28T05:10:16.011Z,110
2018-05-28T05:20:16.642Z,100
2018-05-28T05:30:15.945Z,110
2018-05-28T05:40:15.826Z,125
2018-05-28T05:50:15.987Z,130
2018-05-28T06:00:16.662Z,160
2018-05-28T06:10:15.784Z,250
2018-05-28T06:20:15.871Z,200
2018-05-28T06:30:16.274Z,265
2018-05-28T06:40:15.862Z,210
2018-05-28T06:50:16.703Z,250
2018-05-28T07:00:15.849Z,335
2018-05-28T07:10:15.778Z,340
2018-05-28T07:20:15.806Z,350
2018-05-28T07:30:15.788Z,355
2018-05-28T07:40:15.768Z,365
2018-05-28T07:50:16.673Z,360
2018-05-28T08:00:15.769Z,365
2018-05-28T08:10:17.177Z,370
2018-05-28T08:20:15.795Z,365
2018-05-28T08:30:17.103Z,360
2018-05-28T08:40:15.820Z,335
2018-05-28T08:50:15.781Z,305
2018-05-28T09:00:15.832Z,195
2018-05-28T09:10:15.837Z,160
2018-05-28T09:20:15.985Z,165
2018-05-28T09:30:15.893Z,170
2018-05-28T09:40:15.987Z,180
2018-05-28T09:50:15.886Z,175
2018-05-28T10:00:15.887Z,185
2018-05-28T10:10:16.763Z,190
2018-05-28T10:20:15.843Z,185
2018-05-28T10:30:17.208Z,185
2018-05-28T10:40:15.993Z,190
2018-05-28T10:50:17.597Z,190
2018-05-28T11:00:16.123Z,185
2018-05-28T11:10:16.167Z,200
2018-05-28T11:20:16.402Z,215
2018-05-28T11:30:16.041Z,195
2018-05-28T11:40:16.943Z,180
2018-05-28T11:50:15.844Z,190
2018-05-28T12:00:15.889Z,220
2018-05-28T12:10:15.903Z,210
2018-05-28T12:20:15.882Z,210
2018-05-28T12:30:15.932Z,205
2018-05-28T12:40:15.866Z,205
2018-05-28T12:50:17.659Z,195
2018-05-28T13:00:20.393Z,175
2018-05-28T13:10:17.892Z,170
2018-05-28T13:20:16.995Z,180
2018-05-28T13:30:16.873Z,165
2018-05-28T13:40:15.898Z,160
2018-05-28T13:50:15.932Z,160
2018-05-28T14:00:16.775Z,145
2018-05-28T14:10:15.908Z,140
2018-05-28T14:20:18.026Z,130
2018-05-28T14:30:16.089Z,125
2018-05-28T14:40:16.182Z,125
2018-05-28T14:50:18.962Z,125
2018-05-28T15:00:16.006Z,120
2018-05-28T15:10:15.864Z,120
2018-05-28T15:20:16.103Z,115
2018-05-28T15:30:15.961Z,115
2018-05-28T15:40:17.316Z,110
2018-05-28T15:50:16.404Z,105
2018-05-28T16:00:16.551Z,105
2018-05-28T16:10:16.990Z,105
2018-05-28T16:20:41.877Z,105
2018-05-28T16:30:22.156Z,100
2018-05-28T16:40:44.977Z,100
2018-05-28T16:50:16.906Z,100
2018-05-28T17:00:16.039Z,95
2018-05-28T17:10:16.244Z,90
2018-05-28T17:20:16.189Z,90
2018-05-28T17:30:16.909Z,95
2018-05-28T17:40:17.105Z,105
2018-05-28T17:50:16.218Z,105
2018-05-28T18:00:17.297Z,100
2018-05-28T18:10:16.054Z,95
2018-05-28T18:20:17.023Z,80
2018-05-28T18:30:16.674Z,65
2018-05-28T18:40:16.095Z,50
2018-05-28T18:50:16.893Z,35
2018-05-28T19:00:16.253Z,25
2018-05-28T19:10:16.072Z,15
2018-05-28T19:20:16.066Z,10
2018-05-28T19:30:16.055Z,5
2018-05-28T19:40:16.365Z,0
2018-05-28T19:50:16.161Z,0
2018-05-28T20:00:16.264Z,0
2018-05-28T20:10:16.331Z,0
2018-05-28T20:20:16.163Z,0
2018-05-28T20:30:16.197Z,0
2018-05-28T20:40:16.067Z,0
2018-05-28T20:50:16.498Z,0
2018-05-28T21:00:16.072Z,0
2018-05-28T21:10:16.158Z,0
2018-05-28T21:20:23.176Z,0
2018-05-28T21:30:16.496Z,0
2018-05-28T21:40:16.242Z,0
2018-05-28T21:50:16.148Z,0
2018-05-28T22:00:16.180Z,0
2018-05-28T22:10:17.113Z,0
2018-05-28T22:20:26.405Z,0
2018-05-28T22:30:25.739Z,0
2018-05-28T22:40:16.904Z,0
2018-05-28T22:50:16.181Z,0
2018-05-28T23:00:16.116Z,0
2018-05-28T23:10:16.238Z,0
2018-05-28T23:20:16.215Z,0
2018-05-28T23:30:17.139Z,0
2018-05-28T23:40:16.011Z,0
2018-05-28T23:50:16.072Z,0
